Time,TemperatureF,DewpointF,PressureIn,WindDirection,WindDirectionDegrees,WindSpeedMPH,WindSpeedGustMPH,Humidity,HourlyPrecipIn,Conditions,Clouds,dailyrainin,SoftwareType,DateUTC
2013-08-07 00:03:00,80.6,70.8,29.59,NE,45,0.0,0.0,72,0.00,,---,0.00,VWS V13.01,2013-08-07 04:03:00,
2013-08-07 00:09:00,80.4,70.6,29.59,NE,45,0.0,0.0,72,0.00,,---,0.00,VWS V13.01,2013-08-07 04:09:00,
2013-08-07 00:18:00,80.4,71.0,29.59,NNE,22,0.0,0.0,73,0.00,,---,0.00,VWS V13.01,2013-08-07 04:18:00,
2013-08-07 00:24:00,80.4,71.0,29.59,NNE,22,0.0,0.0,73,0.00,,---,0.00,VWS V13.01,2013-08-07 04:24:00,
2013-08-07 00:34:00,80.2,70.8,29.59,NNE,22,0.0,0.0,73,0.00,,---,0.00,VWS V13.01,2013-08-07 04:34:00,
2013-08-07 00:43:00,80.1,70.6,29.59,NNE,22,0.0,0.0,73,0.00,,---,0.00,VWS V13.01,2013-08-07 04:43:00,
2013-08-07 00:49:00,80.1,70.6,29.59,NNE,22,0.0,15.0,73,0.00,,---,0.00,VWS V13.01,2013-08-07 04:49:00,
2013-08-07 00:58:00,80.1,71.0,29.58,NNE,22,0.0,0.0,74,0.00,,---,0.00,VWS V13.01,2013-08-07 04:58:00,
2013-08-07 01:03:00,79.9,70.9,29.58,NE,45,0.0,0.0,74,0.00,,---,0.00,VWS V13.01,2013-08-07 05:03:00,
2013-08-07 01:14:00,79.9,70.9,29.58,ENE,68,0.0,0.0,74,0.00,,---,0.00,VWS V13.01,2013-08-07 05:14:00,
2013-08-07 01:23:00,79.9,70.9,29.58,ENE,68,0.0,0.0,74,0.00,,---,0.00,VWS V13.01,2013-08-07 05:23:00,
2013-08-07 01:28:00,79.9,70.9,29.58,ENE,68,0.0,13.9,74,0.00,,---,0.00,VWS V13.01,2013-08-07 05:28:00,
2013-08-07 01:38:00,79.9,70.9,29.57,ENE,68,0.0,0.0,74,0.00,,---,0.00,VWS V13.01,2013-08-07 05:38:00,
2013-08-07 01:48:00,79.7,70.7,29.57,ENE,68,0.0,0.0,74,0.00,,---,0.00,VWS V13.01,2013-08-07 05:48:00,
2013-08-07 01:58:00,79.5,70.9,29.57,ENE,68,0.0,0.0,75,0.00,,---,0.00,VWS V13.01,2013-08-07 05:58:00,
2013-08-07 02:09:00,79.5,70.9,29.57,ENE,68,0.0,0.0,75,0.00,,---,0.00,VWS V13.01,2013-08-07 06:09:00,
2013-08-07 02:18:00,79.5,71.3,29.57,ENE,68,0.0,0.0,76,0.00,,---,0.00,VWS V13.01,2013-08-07 06:18:00,
2013-08-07 02:24:00,79.3,71.1,29.56,ENE,68,0.0,0.0,76,0.00,,---,0.00,VWS V13.01,2013-08-07 06:24:00,
2013-08-07 02:33:00,79.3,71.1,29.55,ENE,68,0.0,0.0,76,0.00,,---,0.00,VWS V13.01,2013-08-07 06:33:00,
2013-08-07 02:38:00,79.3,71.1,29.55,ENE,68,0.0,0.0,76,0.00,,---,0.00,VWS V13.01,2013-08-07 06:38:00,
2013-08-07 02:44:00,79.3,71.5,29.55,ESE,112,0.0,0.0,77,0.00,,---,0.00,VWS V13.01,2013-08-07 06:44:00,
2013-08-07 02:54:00,80.2,72.8,29.55,East,90,0.0,2.7,78,0.00,,---,0.00,VWS V13.01,2013-08-07 06:54:00,
2013-08-07 03:03:00,80.8,73.3,29.55,ESE,112,0.0,0.0,78,0.00,,---,0.00,VWS V13.01,2013-08-07 07:03:00,
2013-08-07 03:08:00,81.1,73.6,29.55,SE,135,0.0,0.0,78,0.00,,---,0.00,VWS V13.01,2013-08-07 07:08:00,
2013-08-07 03:14:00,81.3,73.4,29.55,SE,135,0.0,0.0,77,0.00,,---,0.00,VWS V13.01,2013-08-07 07:14:00,
2013-08-07 03:19:00,81.3,73.4,29.55,SE,135,0.0,0.0,77,0.00,,---,0.00,VWS V13.01,2013-08-07 07:19:00,
2013-08-07 03:28:00,81.5,73.6,29.55,SE,135,0.0,0.0,77,0.00,,---,0.00,VWS V13.01,2013-08-07 07:28:00,
2013-08-07 03:39:00,81.7,73.4,29.56,SE,135,0.0,0.0,76,0.00,,---,0.00,VWS V13.01,2013-08-07 07:39:00,
2013-08-07 03:48:00,81.9,73.6,29.55,South,180,0.0,0.0,76,0.00,,---,0.00,VWS V13.01,2013-08-07 07:48:00,
2013-08-07 03:53:00,81.9,73.6,29.55,South,180,0.0,0.0,76,0.00,,---,0.00,VWS V13.01,2013-08-07 07:53:00,
2013-08-07 03:58:00,81.9,73.6,29.55,SE,135,0.0,0.0,76,0.00,,---,0.00,VWS V13.01,2013-08-07 07:58:00,
2013-08-07 04:09:00,81.9,73.6,29.55,ESE,112,0.0,0.0,76,0.00,,---,0.00,VWS V13.01,2013-08-07 08:09:00,
2013-08-07 04:18:00,82.0,73.7,29.55,SE,135,0.0,0.0,76,0.00,,---,0.00,VWS V13.01,2013-08-07 08:18:00,
2013-08-07 04:29:00,81.9,73.6,29.55,SSE,158,0.0,0.0,76,0.00,,---,0.00,VWS V13.01,2013-08-07 08:29:00,
2013-08-07 04:38:00,82.0,73.7,29.55,SSE,158,0.0,0.0,76,0.00,,---,0.00,VWS V13.01,2013-08-07 08:38:00,
2013-08-07 04:43:00,82.0,73.7,29.55,ESE,112,0.0,0.0,76,0.00,,---,0.00,VWS V13.01,2013-08-07 08:43:00,
2013-08-07 04:49:00,82.0,73.7,29.55,SE,135,3.8,3.8,76,0.00,,---,0.00,VWS V13.01,2013-08-07 08:49:00,
2013-08-07 04:58:00,82.0,73.7,29.55,ESE,112,0.0,0.0,76,0.00,,---,0.00,VWS V13.01,2013-08-07 08:58:00,
2013-08-07 05:08:00,82.0,73.7,29.55,SE,135,0.0,0.0,76,0.00,,---,0.00,VWS V13.01,2013-08-07 09:08:00,
2013-08-07 05:18:00,82.0,73.3,29.55,SE,135,0.0,0.0,75,0.00,,---,0.00,VWS V13.01,2013-08-07 09:18:00,
2013-08-07 05:24:00,82.0,73.3,29.55,SE,135,0.7,0.7,75,0.00,,---,0.00,VWS V13.01,2013-08-07 09:24:00,
2013-08-07 05:34:00,82.0,73.3,29.55,East,90,0.0,0.4,75,0.00,,---,0.00,VWS V13.01,2013-08-07 09:34:00,
2013-08-07 05:39:00,82.0,73.3,29.56,SE,135,1.1,1.1,75,0.00,,---,0.00,VWS V13.01,2013-08-07 09:39:00,
2013-08-07 05:48:00,81.9,73.6,29.56,SSE,158,0.0,0.0,76,0.00,,---,0.00,VWS V13.01,2013-08-07 09:48:00,
2013-08-07 05:59:00,81.7,73.4,29.56,SE,135,0.0,0.0,76,0.00,,---,0.00,VWS V13.01,2013-08-07 09:59:00,
2013-08-07 06:09:00,81.7,73.4,29.56,SSE,158,0.0,0.0,76,0.00,,---,0.00,VWS V13.01,2013-08-07 10:09:00,
2013-08-07 06:18:00,81.7,73.4,29.56,SE,135,0.0,0.0,76,0.00,,---,0.00,VWS V13.01,2013-08-07 10:18:00,
2013-08-07 06:23:00,81.7,73.4,29.56,South,180,0.0,0.0,76,0.00,,---,0.00,VWS V13.01,2013-08-07 10:23:00,
2013-08-07 06:33:00,81.5,73.2,29.57,SE,135,0.0,2.2,76,0.00,,---,0.00,VWS V13.01,2013-08-07 10:33:00,
2013-08-07 06:38:00,81.5,73.2,29.57,ENE,68,0.0,0.0,76,0.00,,---,0.00,VWS V13.01,2013-08-07 10:38:00,
2013-08-07 06:48:00,81.5,73.2,29.57,SE,135,0.0,0.0,76,0.00,,---,0.00,VWS V13.01,2013-08-07 10:48:00,
2013-08-07 06:53:00,81.3,73.0,29.57,ESE,112,0.0,0.0,76,0.00,,---,0.00,VWS V13.01,2013-08-07 10:53:00,
2013-08-07 07:03:00,81.3,73.0,29.57,SSE,158,0.0,0.0,76,0.00,,---,0.00,VWS V13.01,2013-08-07 11:03:00,
2013-08-07 07:08:00,81.3,73.0,29.58,SSE,158,0.0,0.0,76,0.00,,---,0.00,VWS V13.01,2013-08-07 11:08:00,
2013-08-07 07:14:00,81.3,73.0,29.58,SSE,158,0.0,0.0,76,0.00,,---,0.00,VWS V13.01,2013-08-07 11:14:00,
2013-08-07 07:19:00,81.3,73.0,29.58,SSE,158,0.0,0.0,76,0.00,,---,0.00,VWS V13.01,2013-08-07 11:19:00,
2013-08-07 07:28:00,81.3,73.0,29.58,SSE,158,0.0,0.0,76,0.00,,---,0.00,VWS V13.01,2013-08-07 11:28:00,
2013-08-07 07:38:00,82.0,73.7,29.58,SE,135,0.0,0.0,76,0.00,,---,0.00,VWS V13.01,2013-08-07 11:38:00,
2013-08-07 07:43:00,82.0,73.7,29.58,South,180,0.0,0.0,76,0.00,,---,0.00,VWS V13.01,2013-08-07 11:43:00,
2013-08-07 07:54:00,82.9,74.2,29.58,SSE,158,1.1,1.1,75,0.00,,---,0.00,VWS V13.01,2013-08-07 11:54:00,
2013-08-07 08:03:00,82.9,73.8,29.59,SSE,158,0.0,0.0,74,0.00,,---,0.00,VWS V13.01,2013-08-07 12:03:00,
2013-08-07 08:13:00,83.8,74.3,29.59,SSE,158,0.0,1.8,73,0.00,,---,0.00,VWS V13.01,2013-08-07 12:13:00,
2013-08-07 08:18:00,84.0,74.0,29.59,SSE,158,0.0,0.0,72,0.00,,---,0.00,VWS V13.01,2013-08-07 12:18:00,
2013-08-07 08:24:00,83.8,73.4,29.60,South,180,3.8,3.8,71,0.00,,---,0.00,VWS V13.01,2013-08-07 12:24:00,
2013-08-07 08:33:00,83.7,72.8,29.60,SSE,158,0.0,0.0,70,0.00,,---,0.00,VWS V13.01,2013-08-07 12:33:00,
2013-08-07 08:43:00,84.6,73.3,29.60,SSE,158,1.3,1.3,69,0.00,,---,0.00,VWS V13.01,2013-08-07 12:43:00,
2013-08-07 08:54:00,85.5,74.1,29.60,SSW,202,7.4,7.4,69,0.00,,---,0.00,VWS V13.01,2013-08-07 12:54:00,
2013-08-07 09:03:00,85.8,74.9,29.60,South,180,0.0,5.4,70,0.00,,---,0.00,VWS V13.01,2013-08-07 13:03:00,
2013-08-07 09:13:00,85.6,74.7,29.60,SSW,202,2.5,4.0,70,0.00,,---,0.00,VWS V13.01,2013-08-07 13:13:00,
2013-08-07 09:23:00,85.3,74.4,29.60,South,180,3.8,8.5,70,0.00,,---,0.00,VWS V13.01,2013-08-07 13:23:00,
2013-08-07 09:28:00,85.6,74.3,29.60,SSE,158,5.6,5.6,69,0.00,,---,0.00,VWS V13.01,2013-08-07 13:28:00,
2013-08-07 09:34:00,86.0,74.2,29.61,SSE,158,6.3,6.3,68,0.00,,---,0.00,VWS V13.01,2013-08-07 13:34:00,
2013-08-07 09:44:00,86.7,74.9,29.61,South,180,0.0,6.5,68,0.00,,---,0.00,VWS V13.01,2013-08-07 13:44:00,
2013-08-07 09:53:00,87.6,75.8,29.61,SSW,202,9.4,9.4,68,0.00,,---,0.00,VWS V13.01,2013-08-07 13:53:00,
2013-08-07 09:59:00,87.6,74.9,29.61,SSE,158,0.0,9.4,66,0.00,,---,0.00,VWS V13.01,2013-08-07 13:59:00,
2013-08-07 10:08:00,88.3,75.6,29.61,SSE,158,0.0,4.3,66,0.00,,---,0.00,VWS V13.01,2013-08-07 14:08:00,
2013-08-07 10:19:00,89.2,75.9,29.61,East,90,0.0,4.3,65,0.00,,---,0.00,VWS V13.01,2013-08-07 14:19:00,
2013-08-07 10:29:00,89.2,75.9,29.61,SSE,158,4.0,4.3,65,0.00,,---,0.00,VWS V13.01,2013-08-07 14:29:00,
2013-08-07 10:38:00,89.8,76.4,29.62,SSW,202,2.7,2.7,65,0.00,,---,0.00,VWS V13.01,2013-08-07 14:38:00,
2013-08-07 10:49:00,89.4,76.1,29.62,South,180,4.0,9.2,65,0.00,,---,0.00,VWS V13.01,2013-08-07 14:49:00,
2013-08-07 10:54:00,89.2,75.9,29.62,ENE,68,6.5,6.5,65,0.00,,---,0.00,VWS V13.01,2013-08-07 14:54:00,
2013-08-07 11:04:00,89.2,75.9,29.62,SSE,158,4.9,9.4,65,0.00,,---,0.00,VWS V13.01,2013-08-07 15:04:00,
2013-08-07 11:14:00,90.3,76.5,29.62,SSE,158,0.0,6.0,64,0.00,,---,0.00,VWS V13.01,2013-08-07 15:14:00,
2013-08-07 11:23:00,90.3,76.5,29.62,SE,135,0.9,6.5,64,0.00,,---,0.00,VWS V13.01,2013-08-07 15:23:00,
2013-08-07 11:29:00,90.3,76.5,29.62,SSE,158,0.0,3.8,64,0.00,,---,0.00,VWS V13.01,2013-08-07 15:29:00,
2013-08-07 11:39:00,91.0,76.7,29.62,South,180,2.0,9.2,63,0.00,,---,0.00,VWS V13.01,2013-08-07 15:39:00,
2013-08-07 11:49:00,91.6,77.2,29.62,SE,135,1.6,4.5,63,0.00,,---,0.00,VWS V13.01,2013-08-07 15:49:00,
2013-08-07 11:58:00,91.0,76.7,29.62,SSE,158,9.0,9.0,63,0.00,,---,0.00,VWS V13.01,2013-08-07 15:58:00,
2013-08-07 12:03:00,91.0,76.7,29.62,SSE,158,9.0,9.0,63,0.00,,---,0.00,VWS V13.01,2013-08-07 16:03:00,
2013-08-07 12:08:00,91.0,76.7,29.62,SSE,158,9.0,9.0,63,0.00,,---,0.00,VWS V13.01,2013-08-07 16:08:00,
2013-08-07 12:14:00,91.2,76.4,29.61,SSE,158,7.2,9.0,62,0.00,,---,0.00,VWS V13.01,2013-08-07 16:14:00,
2013-08-07 12:19:00,91.2,75.9,29.62,East,90,0.0,7.2,61,0.00,,---,0.00,VWS V13.01,2013-08-07 16:19:00,
2013-08-07 12:28:00,91.9,77.1,29.62,SE,135,8.1,8.1,62,0.00,,---,0.00,VWS V13.01,2013-08-07 16:28:00,
2013-08-07 12:33:00,92.1,76.7,29.61,East,90,6.3,8.1,61,0.00,,---,0.00,VWS V13.01,2013-08-07 16:33:00,
2013-08-07 12:44:00,92.1,75.7,29.62,SSE,158,0.2,4.3,59,0.00,,---,0.00,VWS V13.01,2013-08-07 16:44:00,
2013-08-07 12:53:00,91.6,76.2,29.62,SSE,158,12.3,12.3,61,0.00,,---,0.00,VWS V13.01,2013-08-07 16:53:00,
2013-08-07 12:59:00,91.4,76.1,29.62,SSW,202,0.0,12.3,61,0.00,,---,0.00,VWS V13.01,2013-08-07 16:59:00,
2013-08-07 13:08:00,90.7,75.9,29.62,South,180,14.8,14.8,62,0.00,,---,0.00,VWS V13.01,2013-08-07 17:08:00,
2013-08-07 13:14:00,90.7,75.9,29.61,East,90,6.7,14.8,62,0.00,,---,0.00,VWS V13.01,2013-08-07 17:14:00,
2013-08-07 13:19:00,90.7,75.9,29.62,ENE,68,5.1,6.7,62,0.00,,---,0.00,VWS V13.01,2013-08-07 17:19:00,
2013-08-07 13:28:00,87.6,73.5,29.62,ESE,112,10.1,19.7,63,0.00,,---,0.00,VWS V13.01,2013-08-07 17:28:00,
2013-08-07 13:34:00,87.1,73.0,29.62,East,90,5.6,10.1,63,0.00,,---,0.00,VWS V13.01,2013-08-07 17:34:00,
2013-08-07 13:39:00,86.7,73.1,29.62,SE,135,1.1,5.6,64,0.00,,---,0.00,VWS V13.01,2013-08-07 17:39:00,
2013-08-07 13:48:00,85.8,73.2,29.62,ESE,112,3.8,6.7,66,0.00,,---,0.00,VWS V13.01,2013-08-07 17:48:00,
2013-08-07 13:54:00,85.8,73.6,29.62,ESE,112,0.2,3.8,67,0.00,,---,0.00,VWS V13.01,2013-08-07 17:54:00,
2013-08-07 14:04:00,85.6,73.4,29.61,SSE,158,2.0,6.5,67,0.00,,---,0.00,VWS V13.01,2013-08-07 18:04:00,
2013-08-07 14:13:00,85.6,73.9,29.61,ESE,112,0.7,0.7,68,0.00,,---,0.00,VWS V13.01,2013-08-07 18:13:00,
2013-08-07 14:19:00,85.6,73.9,29.61,SE,135,2.5,2.5,68,0.00,,---,0.00,VWS V13.01,2013-08-07 18:19:00,
2013-08-07 14:24:00,85.8,74.0,29.61,ESE,112,0.0,7.4,68,0.00,,---,0.00,VWS V13.01,2013-08-07 18:24:00,
2013-08-07 14:34:00,86.7,74.9,29.61,South,180,0.7,8.7,68,0.00,,---,0.00,VWS V13.01,2013-08-07 18:34:00,
2013-08-07 14:44:00,87.1,74.8,29.61,SE,135,2.5,5.4,67,0.00,,---,0.00,VWS V13.01,2013-08-07 18:44:00,
2013-08-07 14:53:00,87.4,75.6,29.60,SSE,158,0.0,3.1,68,0.00,,---,0.00,VWS V13.01,2013-08-07 18:53:00,
2013-08-07 14:58:00,87.6,75.3,29.60,ENE,68,5.6,5.6,67,0.00,,---,0.00,VWS V13.01,2013-08-07 18:58:00,
2013-08-07 15:04:00,87.6,75.3,29.60,ESE,112,8.1,8.1,67,0.00,,---,0.00,VWS V13.01,2013-08-07 19:04:00,
2013-08-07 15:14:00,87.6,74.9,29.60,SSE,158,0.0,0.0,66,0.00,,---,0.00,VWS V13.01,2013-08-07 19:14:00,
2013-08-07 15:23:00,87.4,75.1,29.60,SSE,158,6.5,6.5,67,0.00,,---,0.00,VWS V13.01,2013-08-07 19:23:00,
2013-08-07 15:28:00,87.4,75.1,29.60,East,90,1.8,6.5,67,0.00,,---,0.00,VWS V13.01,2013-08-07 19:28:00,
2013-08-07 15:33:00,87.3,75.0,29.59,SSE,158,0.4,5.1,67,0.00,,---,0.00,VWS V13.01,2013-08-07 19:33:00,
2013-08-07 15:38:00,87.3,75.4,29.59,ESE,112,3.8,3.8,68,0.00,,---,0.00,VWS V13.01,2013-08-07 19:38:00,
2013-08-07 15:43:00,87.3,75.4,29.59,SE,135,2.0,3.8,68,0.00,,---,0.00,VWS V13.01,2013-08-07 19:43:00,
2013-08-07 15:54:00,87.4,75.6,29.58,South,180,1.3,5.8,68,0.00,,---,0.00,VWS V13.01,2013-08-07 19:54:00,
2013-08-07 16:24:00,87.6,74.9,29.58,SSW,202,3.6,3.6,66,0.00,,---,0.00,VWS V13.01,2013-08-07 20:24:00,
2013-08-07 16:33:00,88.0,75.2,29.58,SSW,202,1.8,1.8,66,0.00,,---,0.00,VWS V13.01,2013-08-07 20:33:00,
2013-08-07 16:39:00,88.2,74.9,29.57,SSE,158,5.1,5.1,65,0.00,,---,0.00,VWS V13.01,2013-08-07 20:39:00,
2013-08-07 16:49:00,87.6,73.9,29.58,SE,135,0.0,2.9,64,0.00,,---,0.00,VWS V13.01,2013-08-07 20:49:00,
2013-08-07 16:58:00,88.0,74.3,29.58,ESE,112,4.3,4.3,64,0.00,,---,0.00,VWS V13.01,2013-08-07 20:58:00,
2013-08-07 17:03:00,88.0,74.3,29.58,SSE,158,2.5,4.3,64,0.00,,---,0.00,VWS V13.01,2013-08-07 21:03:00,
2013-08-07 17:13:00,87.6,73.9,29.58,SE,135,3.1,7.8,64,0.00,,---,0.00,VWS V13.01,2013-08-07 21:13:00,
2013-08-07 17:23:00,87.6,73.9,29.59,SE,135,0.0,3.6,64,0.00,,---,0.00,VWS V13.01,2013-08-07 21:23:00,
2013-08-07 17:33:00,87.8,74.1,29.59,WSW,248,1.3,3.1,64,0.00,,---,0.00,VWS V13.01,2013-08-07 21:33:00,
2013-08-07 17:43:00,87.8,74.1,29.59,WSW,248,0.0,4.7,64,0.00,,---,0.00,VWS V13.01,2013-08-07 21:43:00,
2013-08-07 17:53:00,88.5,74.8,29.58,WSW,248,0.0,5.4,64,0.00,,---,0.00,VWS V13.01,2013-08-07 21:53:00,
2013-08-07 17:59:00,88.9,75.1,29.59,WSW,248,0.0,3.1,64,0.00,,---,0.00,VWS V13.01,2013-08-07 21:59:00,
2013-08-07 18:09:00,88.7,74.5,29.58,WSW,248,3.6,3.6,63,0.00,,---,0.00,VWS V13.01,2013-08-07 22:09:00,
2013-08-07 18:18:00,88.9,75.1,29.58,WSW,248,6.5,6.5,64,0.00,,---,0.00,VWS V13.01,2013-08-07 22:18:00,
2013-08-07 18:29:00,89.1,75.3,29.58,WSW,248,0.0,6.9,64,0.00,,---,0.00,VWS V13.01,2013-08-07 22:29:00,
2013-08-07 18:38:00,88.3,74.6,29.57,WSW,248,0.0,3.6,64,0.00,,---,0.00,VWS V13.01,2013-08-07 22:38:00,
2013-08-07 18:48:00,88.3,74.6,29.57,WSW,248,8.1,8.1,64,0.00,,---,0.00,VWS V13.01,2013-08-07 22:48:00,
2013-08-07 18:54:00,88.2,0.0,29.57,WSW,248,2.2,8.1,0,0.00,,---,0.00,VWS V13.01,2013-08-07 22:54:00,
2013-08-07 19:03:00,87.6,74.4,29.57,WSW,248,4.0,4.0,65,0.00,,---,0.00,VWS V13.01,2013-08-07 23:03:00,
2013-08-07 19:08:00,87.3,74.1,29.57,WSW,248,4.5,4.5,65,0.00,,---,0.00,VWS V13.01,2013-08-07 23:08:00,
2013-08-07 19:18:00,86.9,73.7,29.57,ENE,68,2.9,2.9,65,0.00,,---,0.00,VWS V13.01,2013-08-07 23:18:00,
2013-08-07 19:24:00,86.4,73.2,29.57,ESE,112,4.3,4.3,65,0.00,,---,0.00,VWS V13.01,2013-08-07 23:24:00,
2013-08-07 19:33:00,86.2,73.5,29.57,SE,135,0.0,0.0,66,0.00,,---,0.00,VWS V13.01,2013-08-07 23:33:00,
2013-08-07 19:38:00,85.6,73.4,29.58,SSE,158,0.0,0.0,67,0.00,,---,0.00,VWS V13.01,2013-08-07 23:38:00,
2013-08-07 19:48:00,85.3,72.6,29.58,ESE,112,7.2,7.2,66,0.00,,---,0.00,VWS V13.01,2013-08-07 23:48:00,
2013-08-07 19:53:00,85.1,72.9,29.58,East,90,4.0,7.2,67,0.00,,---,0.00,VWS V13.01,2013-08-07 23:53:00,
2013-08-07 19:59:00,85.1,72.9,29.58,SSE,158,0.0,4.0,67,0.00,,---,0.00,VWS V13.01,2013-08-07 23:59:00,
2013-08-07 20:09:00,84.9,73.2,29.58,ESE,112,1.1,1.1,68,0.00,,---,0.00,VWS V13.01,2013-08-08 00:09:00,
2013-08-07 20:18:00,84.7,73.0,29.58,ESE,112,2.5,2.5,68,0.00,,---,0.00,VWS V13.01,2013-08-08 00:18:00,
2013-08-07 20:24:00,84.6,73.7,29.58,East,90,2.9,4.9,70,0.00,,---,0.00,VWS V13.01,2013-08-08 00:24:00,
2013-08-07 20:33:00,84.4,73.5,29.58,SE,135,0.7,0.7,70,0.00,,---,0.00,VWS V13.01,2013-08-08 00:33:00,
2013-08-07 20:39:00,84.4,73.5,29.58,SE,135,0.0,1.3,70,0.00,,---,0.00,VWS V13.01,2013-08-08 00:39:00,
2013-08-07 20:48:00,84.0,73.2,29.58,SSE,158,0.0,7.8,70,0.00,,---,0.00,VWS V13.01,2013-08-08 00:48:00,
2013-08-07 20:58:00,84.0,73.2,29.58,SE,135,2.5,7.4,70,0.00,,---,0.00,VWS V13.01,2013-08-08 00:58:00,
2013-08-07 21:09:00,84.0,73.2,29.58,East,90,7.8,7.8,70,0.00,,---,0.00,VWS V13.01,2013-08-08 01:09:00,
2013-08-07 21:18:00,83.8,73.4,29.59,East,90,4.5,5.1,71,0.00,,---,0.00,VWS V13.01,2013-08-08 01:18:00,
2013-08-07 21:24:00,83.8,73.4,29.59,SE,135,0.0,8.3,71,0.00,,---,0.00,VWS V13.01,2013-08-08 01:24:00,
2013-08-07 21:33:00,83.8,73.4,29.60,ESE,112,0.0,0.0,71,0.00,,---,0.00,VWS V13.01,2013-08-08 01:33:00,
2013-08-07 21:39:00,83.8,73.4,29.60,East,90,5.6,5.6,71,0.00,,---,0.00,VWS V13.01,2013-08-08 01:39:00,
2013-08-07 21:49:00,83.8,73.4,29.60,SE,135,1.3,1.3,71,0.00,,---,0.00,VWS V13.01,2013-08-08 01:49:00,
2013-08-07 21:58:00,83.8,73.4,29.61,ESE,112,0.0,2.9,71,0.00,,---,0.00,VWS V13.01,2013-08-08 01:58:00,
2013-08-07 22:08:00,83.8,73.8,29.61,ESE,112,0.0,7.8,72,0.00,,---,0.00,VWS V13.01,2013-08-08 02:08:00,
2013-08-07 22:19:00,83.8,73.4,29.62,ESE,112,0.0,1.3,71,0.00,,---,0.00,VWS V13.01,2013-08-08 02:19:00,
2013-08-07 22:29:00,83.8,73.8,29.62,SE,135,3.8,3.8,72,0.00,,---,0.00,VWS V13.01,2013-08-08 02:29:00,
2013-08-07 22:39:00,83.8,73.8,29.62,SSE,158,0.0,0.0,72,0.00,,---,0.00,VWS V13.01,2013-08-08 02:39:00,
2013-08-07 22:48:00,83.7,73.3,29.63,East,90,0.7,0.9,71,0.00,,---,0.00,VWS V13.01,2013-08-08 02:48:00,
2013-08-07 22:53:00,-22.0,-28.4,29.63,ESE,112,1.3,1.3,71,0.00,,---,0.00,VWS V13.01,2013-08-08 02:53:00,
2013-08-07 23:03:00,83.5,73.1,29.63,SE,135,0.2,2.7,71,0.00,,---,0.00,VWS V13.01,2013-08-08 03:03:00,
2013-08-07 23:08:00,83.5,73.1,29.63,NE,45,0.0,0.2,71,0.00,,---,0.00,VWS V13.01,2013-08-08 03:08:00,
2013-08-07 23:18:00,83.5,73.1,29.63,East,90,1.1,1.1,71,0.00,,---,0.00,VWS V13.01,2013-08-08 03:18:00,
2013-08-07 23:24:00,83.5,72.7,29.63,East,90,0.0,1.1,70,0.00,,---,0.00,VWS V13.01,2013-08-08 03:24:00,
2013-08-07 23:33:00,83.5,72.7,29.63,ESE,112,0.0,4.3,70,0.00,,---,0.00,VWS V13.01,2013-08-08 03:33:00,
2013-08-07 23:38:00,83.5,73.1,29.63,East,90,0.0,0.0,71,0.00,,---,0.00,VWS V13.01,2013-08-08 03:38:00,
2013-08-07 23:48:00,83.5,73.1,29.63,SE,135,0.0,0.0,71,0.00,,---,0.00,VWS V13.01,2013-08-08 03:48:00,
2013-08-07 23:54:00,83.5,73.1,29.63,SE,135,0.2,5.4,71,0.00,,---,0.00,VWS V13.01,2013-08-08 03:54:00,